sensor_id;sensor_type;location;lat;lon;timestamp;P1;durP1;ratioP1;P2;durP2;ratioP2
19754;SDS011;10036;47.812;9.274;2022-09-24T00:02:26;8.77;;;6.80;;
19754;SDS011;10036;47.812;9.274;2022-09-24T00:04:52;7.00;;;6.20;;
19754;SDS011;10036;47.812;9.274;2022-09-24T00:07:19;8.13;;;6.30;;
19754;SDS011;10036;47.812;9.274;2022-09-24T00:09:46;6.72;;;6.03;;
19754;SDS011;10036;47.812;9.274;2022-09-24T00:12:13;8.35;;;6.38;;
19754;SDS011;10036;47.812;9.274;2022-09-24T00:14:40;9.20;;;5.80;;
19754;SDS011;10036;47.812;9.274;2022-09-24T00:17:08;8.73;;;6.10;;
19754;SDS011;10036;47.812;9.274;2022-09-24T00:19:35;12.02;;;7.30;;
19754;SDS011;10036;47.812;9.274;2022-09-24T00:22:02;9.43;;;6.80;;
19754;SDS011;10036;47.812;9.274;2022-09-24T00:24:29;9.18;;;7.00;;
19754;SDS011;10036;47.812;9.274;2022-09-24T00:27:12;13.98;;;7.18;;
19754;SDS011;10036;47.812;9.274;2022-09-24T00:29:39;9.43;;;6.30;;
19754;SDS011;10036;47.812;9.274;2022-09-24T00:32:06;9.57;;;7.18;;
19754;SDS011;10036;47.812;9.274;2022-09-24T00:34:35;10.18;;;7.05;;
19754;SDS011;10036;47.812;9.274;2022-09-24T00:37:02;12.13;;;7.63;;
19754;SDS011;10036;47.812;9.274;2022-09-24T00:39:29;9.88;;;7.25;;
19754;SDS011;10036;47.812;9.274;2022-09-24T00:41:56;8.85;;;7.45;;
19754;SDS011;10036;47.812;9.274;2022-09-24T00:47:25;11.20;;;8.05;;
19754;SDS011;10036;47.812;9.274;2022-09-24T00:50:01;10.57;;;8.30;;
19754;SDS011;10036;47.812;9.274;2022-09-24T00:52:32;9.18;;;8.05;;
19754;SDS011;10036;47.812;9.274;2022-09-24T00:55:01;9.38;;;7.15;;
19754;SDS011;10036;47.812;9.274;2022-09-24T00:57:27;10.85;;;8.10;;
19754;SDS011;10036;47.812;9.274;2022-09-24T00:59:54;8.98;;;8.07;;
19754;SDS011;10036;47.812;9.274;2022-09-24T01:02:21;9.52;;;8.57;;
19754;SDS011;10036;47.812;9.274;2022-09-24T01:04:48;10.60;;;8.43;;
19754;SDS011;10036;47.812;9.274;2022-09-24T01:07:17;13.88;;;9.32;;
19754;SDS011;10036;47.812;9.274;2022-09-24T01:09:44;13.68;;;8.43;;
19754;SDS011;10036;47.812;9.274;2022-09-24T01:12:13;13.23;;;7.78;;
19754;SDS011;10036;47.812;9.274;2022-09-24T01:14:49;9.57;;;7.25;;
19754;SDS011;10036;47.812;9.274;2022-09-24T01:17:26;8.20;;;7.05;;
19754;SDS011;10036;47.812;9.274;2022-09-24T01:20:11;11.82;;;7.57;;
19754;SDS011;10036;47.812;9.274;2022-09-24T01:22:59;13.32;;;8.05;;
19754;SDS011;10036;47.812;9.274;2022-09-24T01:25:38;12.15;;;8.30;;
19754;SDS011;10036;47.812;9.274;2022-09-24T01:28:20;14.82;;;8.38;;
19754;SDS011;10036;47.812;9.274;2022-09-24T01:31:02;13.25;;;8.52;;
19754;SDS011;10036;47.812;9.274;2022-09-24T01:33:33;11.65;;;8.05;;
19754;SDS011;10036;47.812;9.274;2022-09-24T01:36:02;12.07;;;8.82;;
19754;SDS011;10036;47.812;9.274;2022-09-24T01:38:33;14.48;;;8.90;;
19754;SDS011;10036;47.812;9.274;2022-09-24T01:41:04;11.07;;;8.13;;
19754;SDS011;10036;47.812;9.274;2022-09-24T01:43:34;12.57;;;8.25;;
19754;SDS011;10036;47.812;9.274;2022-09-24T01:46:04;9.90;;;8.00;;
19754;SDS011;10036;47.812;9.274;2022-09-24T01:48:34;9.55;;;7.20;;
19754;SDS011;10036;47.812;9.274;2022-09-24T01:51:04;10.88;;;7.95;;
19754;SDS011;10036;47.812;9.274;2022-09-24T01:53:36;12.07;;;7.55;;
19754;SDS011;10036;47.812;9.274;2022-09-24T01:56:09;10.13;;;7.25;;
19754;SDS011;10036;47.812;9.274;2022-09-24T01:58:42;13.57;;;8.13;;
19754;SDS011;10036;47.812;9.274;2022-09-24T02:01:16;12.25;;;9.30;;
19754;SDS011;10036;47.812;9.274;2022-09-24T02:03:47;11.38;;;8.50;;
19754;SDS011;10036;47.812;9.274;2022-09-24T02:06:19;13.70;;;8.25;;
19754;SDS011;10036;47.812;9.274;2022-09-24T02:08:50;14.75;;;10.07;;
19754;SDS011;10036;47.812;9.274;2022-09-24T02:11:17;15.18;;;10.55;;
19754;SDS011;10036;47.812;9.274;2022-09-24T02:13:46;12.75;;;9.25;;
19754;SDS011;10036;47.812;9.274;2022-09-24T02:16:18;12.55;;;8.60;;
19754;SDS011;10036;47.812;9.274;2022-09-24T02:18:49;13.52;;;9.10;;
19754;SDS011;10036;47.812;9.274;2022-09-24T02:21:19;11.02;;;8.48;;
19754;SDS011;10036;47.812;9.274;2022-09-24T02:23:50;10.77;;;8.65;;
19754;SDS011;10036;47.812;9.274;2022-09-24T02:26:20;11.32;;;9.32;;
19754;SDS011;10036;47.812;9.274;2022-09-24T02:28:47;13.57;;;10.30;;
19754;SDS011;10036;47.812;9.274;2022-09-24T02:31:15;13.50;;;9.27;;
19754;SDS011;10036;47.812;9.274;2022-09-24T02:33:48;14.32;;;10.48;;
19754;SDS011;10036;47.812;9.274;2022-09-24T02:36:34;15.52;;;10.77;;
19754;SDS011;10036;47.812;9.274;2022-09-24T02:39:02;14.60;;;11.13;;
19754;SDS011;10036;47.812;9.274;2022-09-24T02:41:29;13.65;;;11.32;;
19754;SDS011;10036;47.812;9.274;2022-09-24T02:43:57;20.13;;;11.93;;
19754;SDS011;10036;47.812;9.274;2022-09-24T02:46:25;14.52;;;11.30;;
19754;SDS011;10036;47.812;9.274;2022-09-24T02:48:52;11.52;;;10.00;;
19754;SDS011;10036;47.812;9.274;2022-09-24T02:51:19;15.07;;;11.95;;
19754;SDS011;10036;47.812;9.274;2022-09-24T02:53:46;12.95;;;11.65;;
19754;SDS011;10036;47.812;9.274;2022-09-24T02:56:13;13.55;;;11.77;;
19754;SDS011;10036;47.812;9.274;2022-09-24T02:58:40;12.25;;;10.70;;
19754;SDS011;10036;47.812;9.274;2022-09-24T03:01:07;15.38;;;12.27;;
19754;SDS011;10036;47.812;9.274;2022-09-24T03:03:35;14.02;;;12.13;;
19754;SDS011;10036;47.812;9.274;2022-09-24T03:06:02;14.27;;;11.98;;
19754;SDS011;10036;47.812;9.274;2022-09-24T03:08:29;13.43;;;11.02;;
19754;SDS011;10036;47.812;9.274;2022-09-24T03:10:57;15.75;;;11.70;;
19754;SDS011;10036;47.812;9.274;2022-09-24T03:13:24;13.38;;;11.93;;
19754;SDS011;10036;47.812;9.274;2022-09-24T03:15:51;16.73;;;13.65;;
19754;SDS011;10036;47.812;9.274;2022-09-24T03:18:18;14.55;;;12.40;;
19754;SDS011;10036;47.812;9.274;2022-09-24T03:20:54;14.73;;;10.90;;
19754;SDS011;10036;47.812;9.274;2022-09-24T03:23:21;13.93;;;11.32;;
19754;SDS011;10036;47.812;9.274;2022-09-24T03:25:48;12.15;;;9.90;;
19754;SDS011;10036;47.812;9.274;2022-09-24T03:28:15;13.35;;;10.63;;
19754;SDS011;10036;47.812;9.274;2022-09-24T03:30:43;12.68;;;9.82;;
19754;SDS011;10036;47.812;9.274;2022-09-24T03:33:24;11.80;;;9.85;;
19754;SDS011;10036;47.812;9.274;2022-09-24T03:35:55;15.27;;;10.45;;
19754;SDS011;10036;47.812;9.274;2022-09-24T03:38:22;13.27;;;11.38;;
19754;SDS011;10036;47.812;9.274;2022-09-24T03:40:50;11.80;;;10.60;;
19754;SDS011;10036;47.812;9.274;2022-09-24T03:43:17;14.80;;;12.18;;
19754;SDS011;10036;47.812;9.274;2022-09-24T03:45:44;20.95;;;12.73;;
19754;SDS011;10036;47.812;9.274;2022-09-24T03:48:11;20.02;;;12.25;;
19754;SDS011;10036;47.812;9.274;2022-09-24T03:50:38;17.25;;;11.60;;
19754;SDS011;10036;47.812;9.274;2022-09-24T03:53:06;15.43;;;11.05;;
19754;SDS011;10036;47.812;9.274;2022-09-24T03:55:34;14.75;;;11.18;;
19754;SDS011;10036;47.812;9.274;2022-09-24T03:58:01;13.82;;;10.45;;
19754;SDS011;10036;47.812;9.274;2022-09-24T04:00:28;14.85;;;11.38;;
19754;SDS011;10036;47.812;9.274;2022-09-24T04:02:54;11.73;;;10.52;;
19754;SDS011;10036;47.812;9.274;2022-09-24T04:05:21;12.98;;;11.60;;
19754;SDS011;10036;47.812;9.274;2022-09-24T04:07:48;15.93;;;12.00;;
19754;SDS011;10036;47.812;9.274;2022-09-24T04:10:16;14.88;;;11.55;;
19754;SDS011;10036;47.812;9.274;2022-09-24T04:12:43;13.10;;;10.20;;
19754;SDS011;10036;47.812;9.274;2022-09-24T04:15:10;13.57;;;10.98;;
19754;SDS011;10036;47.812;9.274;2022-09-24T04:17:37;16.42;;;11.50;;
19754;SDS011;10036;47.812;9.274;2022-09-24T04:20:04;16.15;;;11.15;;
19754;SDS011;10036;47.812;9.274;2022-09-24T04:22:33;14.32;;;11.20;;
19754;SDS011;10036;47.812;9.274;2022-09-24T04:24:59;12.32;;;11.02;;
19754;SDS011;10036;47.812;9.274;2022-09-24T04:27:29;12.48;;;11.10;;
19754;SDS011;10036;47.812;9.274;2022-09-24T04:29:56;13.70;;;12.27;;
19754;SDS011;10036;47.812;9.274;2022-09-24T04:32:22;12.95;;;10.43;;
19754;SDS011;10036;47.812;9.274;2022-09-24T04:34:49;13.05;;;11.60;;
19754;SDS011;10036;47.812;9.274;2022-09-24T04:37:16;13.35;;;10.88;;
19754;SDS011;10036;47.812;9.274;2022-09-24T04:39:43;13.57;;;11.27;;
19754;SDS011;10036;47.812;9.274;2022-09-24T04:42:14;13.68;;;11.10;;
19754;SDS011;10036;47.812;9.274;2022-09-24T04:44:43;14.57;;;10.57;;
19754;SDS011;10036;47.812;9.274;2022-09-24T04:47:11;12.15;;;10.85;;
19754;SDS011;10036;47.812;9.274;2022-09-24T04:49:38;12.57;;;11.27;;
19754;SDS011;10036;47.812;9.274;2022-09-24T04:52:05;12.38;;;10.80;;
19754;SDS011;10036;47.812;9.274;2022-09-24T04:54:32;12.82;;;11.45;;
19754;SDS011;10036;47.812;9.274;2022-09-24T04:56:59;15.25;;;10.48;;
19754;SDS011;10036;47.812;9.274;2022-09-24T04:59:26;11.55;;;10.32;;
19754;SDS011;10036;47.812;9.274;2022-09-24T05:01:54;16.70;;;10.95;;
19754;SDS011;10036;47.812;9.274;2022-09-24T05:04:21;16.60;;;11.65;;
19754;SDS011;10036;47.812;9.274;2022-09-24T05:06:48;17.20;;;12.88;;
19754;SDS011;10036;47.812;9.274;2022-09-24T05:09:15;15.88;;;11.95;;
19754;SDS011;10036;47.812;9.274;2022-09-24T05:11:42;14.93;;;11.35;;
19754;SDS011;10036;47.812;9.274;2022-09-24T05:14:09;12.75;;;11.45;;
19754;SDS011;10036;47.812;9.274;2022-09-24T05:16:35;15.25;;;12.70;;
19754;SDS011;10036;47.812;9.274;2022-09-24T05:19:04;16.27;;;12.32;;
19754;SDS011;10036;47.812;9.274;2022-09-24T05:21:30;14.13;;;11.98;;
19754;SDS011;10036;47.812;9.274;2022-09-24T05:23:57;13.18;;;11.57;;
19754;SDS011;10036;47.812;9.274;2022-09-24T05:26:24;16.42;;;13.38;;
19754;SDS011;10036;47.812;9.274;2022-09-24T05:29:08;14.05;;;12.10;;
19754;SDS011;10036;47.812;9.274;2022-09-24T05:31:35;17.02;;;12.45;;
19754;SDS011;10036;47.812;9.274;2022-09-24T05:34:03;16.38;;;12.77;;
19754;SDS011;10036;47.812;9.274;2022-09-24T05:36:30;16.13;;;13.43;;
19754;SDS011;10036;47.812;9.274;2022-09-24T05:38:57;13.63;;;11.55;;
19754;SDS011;10036;47.812;9.274;2022-09-24T05:41:24;15.13;;;12.32;;
19754;SDS011;10036;47.812;9.274;2022-09-24T05:43:51;12.10;;;10.90;;
19754;SDS011;10036;47.812;9.274;2022-09-24T05:46:19;14.07;;;11.88;;
19754;SDS011;10036;47.812;9.274;2022-09-24T05:48:46;12.88;;;11.50;;
19754;SDS011;10036;47.812;9.274;2022-09-24T05:51:15;15.57;;;13.05;;
19754;SDS011;10036;47.812;9.274;2022-09-24T05:53:42;14.80;;;12.55;;
19754;SDS011;10036;47.812;9.274;2022-09-24T05:56:09;15.43;;;13.40;;
19754;SDS011;10036;47.812;9.274;2022-09-24T05:58:36;14.20;;;12.55;;
19754;SDS011;10036;47.812;9.274;2022-09-24T06:01:03;17.48;;;13.52;;
19754;SDS011;10036;47.812;9.274;2022-09-24T06:03:30;13.80;;;11.80;;
19754;SDS011;10036;47.812;9.274;2022-09-24T06:05:57;16.27;;;13.45;;
19754;SDS011;10036;47.812;9.274;2022-09-24T06:08:27;16.90;;;13.30;;
19754;SDS011;10036;47.812;9.274;2022-09-24T06:10:57;17.65;;;13.02;;
19754;SDS011;10036;47.812;9.274;2022-09-24T06:13:24;15.45;;;12.95;;
19754;SDS011;10036;47.812;9.274;2022-09-24T06:15:51;16.80;;;13.63;;
19754;SDS011;10036;47.812;9.274;2022-09-24T06:18:17;18.20;;;13.48;;
19754;SDS011;10036;47.812;9.274;2022-09-24T06:20:44;14.98;;;12.38;;
19754;SDS011;10036;47.812;9.274;2022-09-24T06:23:11;15.38;;;13.05;;
19754;SDS011;10036;47.812;9.274;2022-09-24T06:25:40;15.10;;;12.27;;
19754;SDS011;10036;47.812;9.274;2022-09-24T06:28:07;14.15;;;12.20;;
19754;SDS011;10036;47.812;9.274;2022-09-24T06:30:35;13.73;;;12.30;;
19754;SDS011;10036;47.812;9.274;2022-09-24T06:33:03;15.90;;;12.70;;
19754;SDS011;10036;47.812;9.274;2022-09-24T06:35:32;16.63;;;12.45;;
19754;SDS011;10036;47.812;9.274;2022-09-24T06:38:00;14.88;;;12.07;;
19754;SDS011;10036;47.812;9.274;2022-09-24T06:40:27;16.73;;;13.57;;
19754;SDS011;10036;47.812;9.274;2022-09-24T06:42:55;15.48;;;13.00;;
19754;SDS011;10036;47.812;9.274;2022-09-24T06:45:23;15.25;;;12.65;;
19754;SDS011;10036;47.812;9.274;2022-09-24T06:47:51;18.63;;;13.20;;
19754;SDS011;10036;47.812;9.274;2022-09-24T06:50:18;16.85;;;13.50;;
19754;SDS011;10036;47.812;9.274;2022-09-24T06:52:45;18.02;;;13.38;;
19754;SDS011;10036;47.812;9.274;2022-09-24T06:55:13;15.60;;;12.75;;
19754;SDS011;10036;47.812;9.274;2022-09-24T06:57:40;15.00;;;12.05;;
19754;SDS011;10036;47.812;9.274;2022-09-24T07:00:09;15.75;;;12.05;;
19754;SDS011;10036;47.812;9.274;2022-09-24T07:02:38;12.18;;;10.60;;
19754;SDS011;10036;47.812;9.274;2022-09-24T07:05:05;16.15;;;13.98;;
19754;SDS011;10036;47.812;9.274;2022-09-24T07:07:33;25.80;;;19.23;;
19754;SDS011;10036;47.812;9.274;2022-09-24T07:10:02;23.23;;;19.00;;
19754;SDS011;10036;47.812;9.274;2022-09-24T07:12:31;27.45;;;20.83;;
19754;SDS011;10036;47.812;9.274;2022-09-24T07:14:59;26.77;;;20.35;;
19754;SDS011;10036;47.812;9.274;2022-09-24T07:17:28;53.67;;;37.60;;
19754;SDS011;10036;47.812;9.274;2022-09-24T07:19:55;58.78;;;41.85;;
19754;SDS011;10036;47.812;9.274;2022-09-24T07:22:21;46.70;;;37.33;;
19754;SDS011;10036;47.812;9.274;2022-09-24T07:24:48;29.70;;;24.88;;
19754;SDS011;10036;47.812;9.274;2022-09-24T07:27:16;22.73;;;19.48;;
19754;SDS011;10036;47.812;9.274;2022-09-24T07:29:43;22.15;;;19.88;;
19754;SDS011;10036;47.812;9.274;2022-09-24T07:32:10;17.00;;;15.30;;
19754;SDS011;10036;47.812;9.274;2022-09-24T07:34:39;14.32;;;12.82;;
19754;SDS011;10036;47.812;9.274;2022-09-24T07:37:06;14.23;;;11.57;;
19754;SDS011;10036;47.812;9.274;2022-09-24T07:39:33;12.43;;;10.57;;
19754;SDS011;10036;47.812;9.274;2022-09-24T07:42:00;9.93;;;8.93;;
19754;SDS011;10036;47.812;9.274;2022-09-24T07:44:27;11.35;;;8.60;;
19754;SDS011;10036;47.812;9.274;2022-09-24T07:46:54;9.68;;;8.13;;
19754;SDS011;10036;47.812;9.274;2022-09-24T07:49:22;9.75;;;8.73;;
19754;SDS011;10036;47.812;9.274;2022-09-24T07:51:50;9.25;;;7.82;;
19754;SDS011;10036;47.812;9.274;2022-09-24T07:54:18;9.32;;;8.25;;
19754;SDS011;10036;47.812;9.274;2022-09-24T07:56:45;9.10;;;7.88;;
19754;SDS011;10036;47.812;9.274;2022-09-24T07:59:12;8.60;;;7.20;;
19754;SDS011;10036;47.812;9.274;2022-09-24T08:01:39;9.02;;;6.57;;
19754;SDS011;10036;47.812;9.274;2022-09-24T08:04:05;7.93;;;6.72;;
19754;SDS011;10036;47.812;9.274;2022-09-24T08:06:33;7.68;;;6.90;;
19754;SDS011;10036;47.812;9.274;2022-09-24T08:09:01;8.98;;;6.82;;
19754;SDS011;10036;47.812;9.274;2022-09-24T08:11:29;6.70;;;6.00;;
19754;SDS011;10036;47.812;9.274;2022-09-24T08:13:57;6.60;;;5.25;;
19754;SDS011;10036;47.812;9.274;2022-09-24T08:16:24;5.88;;;4.95;;
19754;SDS011;10036;47.812;9.274;2022-09-24T08:18:51;6.53;;;4.45;;
19754;SDS011;10036;47.812;9.274;2022-09-24T08:21:18;6.10;;;5.28;;
19754;SDS011;10036;47.812;9.274;2022-09-24T08:23:46;6.68;;;5.10;;
19754;SDS011;10036;47.812;9.274;2022-09-24T08:26:14;5.22;;;4.72;;
19754;SDS011;10036;47.812;9.274;2022-09-24T08:28:41;6.60;;;5.38;;
19754;SDS011;10036;47.812;9.274;2022-09-24T08:31:09;5.32;;;4.22;;
19754;SDS011;10036;47.812;9.274;2022-09-24T08:33:38;5.25;;;4.15;;
19754;SDS011;10036;47.812;9.274;2022-09-24T08:36:06;5.82;;;5.20;;
19754;SDS011;10036;47.812;9.274;2022-09-24T08:38:34;5.95;;;5.32;;
19754;SDS011;10036;47.812;9.274;2022-09-24T08:41:03;7.60;;;5.70;;
19754;SDS011;10036;47.812;9.274;2022-09-24T08:43:45;6.47;;;5.80;;
19754;SDS011;10036;47.812;9.274;2022-09-24T08:46:22;6.18;;;5.28;;
19754;SDS011;10036;47.812;9.274;2022-09-24T08:49:11;6.10;;;5.05;;
19754;SDS011;10036;47.812;9.274;2022-09-24T08:51:45;5.30;;;4.80;;
19754;SDS011;10036;47.812;9.274;2022-09-24T08:54:22;5.03;;;4.28;;
19754;SDS011;10036;47.812;9.274;2022-09-24T08:56:53;5.47;;;4.53;;
19754;SDS011;10036;47.812;9.274;2022-09-24T08:59:23;7.28;;;4.60;;
19754;SDS011;10036;47.812;9.274;2022-09-24T09:01:56;8.73;;;4.80;;
19754;SDS011;10036;47.812;9.274;2022-09-24T09:04:39;5.20;;;4.70;;
19754;SDS011;10036;47.812;9.274;2022-09-24T09:07:17;5.68;;;4.68;;
19754;SDS011;10036;47.812;9.274;2022-09-24T09:09:49;5.75;;;4.90;;
19754;SDS011;10036;47.812;9.274;2022-09-24T09:12:24;8.60;;;4.78;;
19754;SDS011;10036;47.812;9.274;2022-09-24T09:14:57;5.65;;;4.57;;
19754;SDS011;10036;47.812;9.274;2022-09-24T09:17:31;6.72;;;4.38;;
19754;SDS011;10036;47.812;9.274;2022-09-24T09:20:09;5.18;;;4.63;;
19754;SDS011;10036;47.812;9.274;2022-09-24T09:22:40;5.57;;;4.70;;
19754;SDS011;10036;47.812;9.274;2022-09-24T09:25:17;7.93;;;5.20;;
19754;SDS011;10036;47.812;9.274;2022-09-24T09:27:50;4.95;;;4.38;;
19754;SDS011;10036;47.812;9.274;2022-09-24T09:30:20;6.97;;;4.45;;
19754;SDS011;10036;47.812;9.274;2022-09-24T09:32:55;4.30;;;3.88;;
19754;SDS011;10036;47.812;9.274;2022-09-24T09:35:37;4.30;;;3.90;;
19754;SDS011;10036;47.812;9.274;2022-09-24T09:38:12;4.70;;;3.40;;
19754;SDS011;10036;47.812;9.274;2022-09-24T09:40:47;4.72;;;4.03;;
19754;SDS011;10036;47.812;9.274;2022-09-24T09:43:20;4.20;;;3.80;;
19754;SDS011;10036;47.812;9.274;2022-09-24T09:45:53;5.30;;;4.40;;
19754;SDS011;10036;47.812;9.274;2022-09-24T09:48:25;4.43;;;4.03;;
19754;SDS011;10036;47.812;9.274;2022-09-24T09:50:57;4.72;;;4.15;;
19754;SDS011;10036;47.812;9.274;2022-09-24T09:53:29;4.20;;;3.75;;
19754;SDS011;10036;47.812;9.274;2022-09-24T09:55:57;3.75;;;3.45;;
19754;SDS011;10036;47.812;9.274;2022-09-24T09:58:27;4.43;;;3.85;;
19754;SDS011;10036;47.812;9.274;2022-09-24T10:01:05;4.32;;;3.53;;
19754;SDS011;10036;47.812;9.274;2022-09-24T10:03:34;5.85;;;3.60;;
19754;SDS011;10036;47.812;9.274;2022-09-24T10:06:13;4.60;;;3.92;;
19754;SDS011;10036;47.812;9.274;2022-09-24T10:08:49;4.75;;;4.32;;
19754;SDS011;10036;47.812;9.274;2022-09-24T10:11:16;4.28;;;3.88;;
19754;SDS011;10036;47.812;9.274;2022-09-24T10:13:45;4.35;;;3.95;;
19754;SDS011;10036;47.812;9.274;2022-09-24T10:16:12;4.32;;;3.92;;
19754;SDS011;10036;47.812;9.274;2022-09-24T10:18:41;5.05;;;3.78;;
19754;SDS011;10036;47.812;9.274;2022-09-24T10:21:13;5.75;;;3.97;;
19754;SDS011;10036;47.812;9.274;2022-09-24T10:23:48;4.78;;;4.28;;
19754;SDS011;10036;47.812;9.274;2022-09-24T10:26:16;7.38;;;4.22;;
19754;SDS011;10036;47.812;9.274;2022-09-24T10:28:45;9.88;;;5.07;;
19754;SDS011;10036;47.812;9.274;2022-09-24T10:31:33;5.65;;;3.67;;
19754;SDS011;10036;47.812;9.274;2022-09-24T10:34:03;4.32;;;3.40;;
19754;SDS011;10036;47.812;9.274;2022-09-24T10:36:48;3.13;;;2.83;;
19754;SDS011;10036;47.812;9.274;2022-09-24T10:39:16;3.10;;;2.80;;
19754;SDS011;10036;47.812;9.274;2022-09-24T10:41:44;3.58;;;2.80;;
19754;SDS011;10036;47.812;9.274;2022-09-24T10:44:13;3.58;;;2.90;;
19754;SDS011;10036;47.812;9.274;2022-09-24T10:46:47;3.20;;;2.78;;
19754;SDS011;10036;47.812;9.274;2022-09-24T10:49:38;3.40;;;3.10;;
19754;SDS011;10036;47.812;9.274;2022-09-24T10:52:20;4.75;;;3.05;;
19754;SDS011;10036;47.812;9.274;2022-09-24T10:55:01;3.75;;;3.00;;
19754;SDS011;10036;47.812;9.274;2022-09-24T10:57:40;3.53;;;3.22;;
19754;SDS011;10036;47.812;9.274;2022-09-24T11:00:19;3.47;;;3.17;;
19754;SDS011;10036;47.812;9.274;2022-09-24T11:05:59;3.63;;;3.33;;
19754;SDS011;10036;47.812;9.274;2022-09-24T11:08:34;5.43;;;3.40;;
19754;SDS011;10036;47.812;9.274;2022-09-24T11:11:19;4.53;;;3.40;;
19754;SDS011;10036;47.812;9.274;2022-09-24T11:13:56;5.60;;;3.70;;
19754;SDS011;10036;47.812;9.274;2022-09-24T11:16:45;4.63;;;3.28;;
19754;SDS011;10036;47.812;9.274;2022-09-24T11:19:46;4.45;;;3.22;;
19754;SDS011;10036;47.812;9.274;2022-09-24T11:22:26;67.03;;;35.63;;
19754;SDS011;10036;47.812;9.274;2022-09-24T11:25:13;21.08;;;15.13;;
19754;SDS011;10036;47.812;9.274;2022-09-24T11:27:56;10.50;;;7.80;;
19754;SDS011;10036;47.812;9.274;2022-09-24T11:30:34;6.75;;;5.25;;
19754;SDS011;10036;47.812;9.274;2022-09-24T11:33:15;4.88;;;4.38;;
19754;SDS011;10036;47.812;9.274;2022-09-24T11:36:01;7.47;;;6.78;;
19754;SDS011;10036;47.812;9.274;2022-09-24T11:38:44;5.35;;;3.38;;
19754;SDS011;10036;47.812;9.274;2022-09-24T11:41:25;3.88;;;3.40;;
19754;SDS011;10036;47.812;9.274;2022-09-24T11:44:11;5.13;;;4.03;;
19754;SDS011;10036;47.812;9.274;2022-09-24T11:47:05;4.88;;;4.38;;
19754;SDS011;10036;47.812;9.274;2022-09-24T11:49:54;38.60;;;30.60;;
19754;SDS011;10036;47.812;9.274;2022-09-24T11:52:30;67.53;;;47.88;;
19754;SDS011;10036;47.812;9.274;2022-09-24T11:55:03;52.78;;;41.35;;
19754;SDS011;10036;47.812;9.274;2022-09-24T11:57:40;11.80;;;9.25;;
19754;SDS011;10036;47.812;9.274;2022-09-24T12:00:13;9.45;;;6.43;;
19754;SDS011;10036;47.812;9.274;2022-09-24T12:02:42;8.23;;;6.90;;
19754;SDS011;10036;47.812;9.274;2022-09-24T12:05:16;4.28;;;3.35;;
19754;SDS011;10036;47.812;9.274;2022-09-24T12:07:52;3.92;;;3.53;;
19754;SDS011;10036;47.812;9.274;2022-09-24T12:10:24;3.92;;;3.10;;
19754;SDS011;10036;47.812;9.274;2022-09-24T12:12:59;3.55;;;3.13;;
19754;SDS011;10036;47.812;9.274;2022-09-24T12:15:33;3.53;;;2.83;;
19754;SDS011;10036;47.812;9.274;2022-09-24T12:18:10;4.35;;;3.25;;
19754;SDS011;10036;47.812;9.274;2022-09-24T12:20:45;3.40;;;3.10;;
19754;SDS011;10036;47.812;9.274;2022-09-24T12:23:17;3.67;;;3.22;;
19754;SDS011;10036;47.812;9.274;2022-09-24T12:25:48;13.02;;;9.30;;
19754;SDS011;10036;47.812;9.274;2022-09-24T12:28:18;11.93;;;8.68;;
19754;SDS011;10036;47.812;9.274;2022-09-24T12:31:00;8.40;;;6.20;;
19754;SDS011;10036;47.812;9.274;2022-09-24T12:33:49;5.82;;;4.47;;
19754;SDS011;10036;47.812;9.274;2022-09-24T12:36:21;4.10;;;3.70;;
19754;SDS011;10036;47.812;9.274;2022-09-24T12:38:52;4.05;;;3.20;;
19754;SDS011;10036;47.812;9.274;2022-09-24T12:41:26;5.57;;;3.25;;
19754;SDS011;10036;47.812;9.274;2022-09-24T12:43:57;3.63;;;3.33;;
19754;SDS011;10036;47.812;9.274;2022-09-24T12:46:30;3.65;;;3.13;;
19754;SDS011;10036;47.812;9.274;2022-09-24T12:49:03;4.65;;;3.40;;
19754;SDS011;10036;47.812;9.274;2022-09-24T12:51:44;3.58;;;3.28;;
19754;SDS011;10036;47.812;9.274;2022-09-24T12:54:18;3.83;;;3.30;;
19754;SDS011;10036;47.812;9.274;2022-09-24T12:56:51;4.22;;;3.42;;
19754;SDS011;10036;47.812;9.274;2022-09-24T12:59:29;4.05;;;3.65;;
19754;SDS011;10036;47.812;9.274;2022-09-24T13:02:05;4.18;;;3.25;;
19754;SDS011;10036;47.812;9.274;2022-09-24T13:04:42;4.25;;;3.30;;
19754;SDS011;10036;47.812;9.274;2022-09-24T13:09:57;5.28;;;2.92;;
19754;SDS011;10036;47.812;9.274;2022-09-24T13:12:47;5.07;;;3.42;;
19754;SDS011;10036;47.812;9.274;2022-09-24T13:15:19;4.18;;;3.20;;
19754;SDS011;10036;47.812;9.274;2022-09-24T13:17:58;3.50;;;3.20;;
19754;SDS011;10036;47.812;9.274;2022-09-24T13:20:28;4.65;;;3.20;;
19754;SDS011;10036;47.812;9.274;2022-09-24T13:22:58;4.80;;;3.05;;
19754;SDS011;10036;47.812;9.274;2022-09-24T13:25:36;3.80;;;3.25;;
19754;SDS011;10036;47.812;9.274;2022-09-24T13:28:18;3.85;;;3.35;;
19754;SDS011;10036;47.812;9.274;2022-09-24T13:30:46;4.38;;;3.40;;
19754;SDS011;10036;47.812;9.274;2022-09-24T13:33:19;3.63;;;3.25;;
19754;SDS011;10036;47.812;9.274;2022-09-24T13:35:59;3.67;;;3.15;;
19754;SDS011;10036;47.812;9.274;2022-09-24T13:38:32;4.22;;;3.53;;
19754;SDS011;10036;47.812;9.274;2022-09-24T13:41:02;3.33;;;3.00;;
19754;SDS011;10036;47.812;9.274;2022-09-24T13:43:38;3.75;;;3.45;;
19754;SDS011;10036;47.812;9.274;2022-09-24T13:46:13;3.35;;;3.15;;
19754;SDS011;10036;47.812;9.274;2022-09-24T13:48:42;3.47;;;3.00;;
19754;SDS011;10036;47.812;9.274;2022-09-24T13:51:14;4.15;;;3.75;;
19754;SDS011;10036;47.812;9.274;2022-09-24T13:53:45;4.10;;;3.58;;
19754;SDS011;10036;47.812;9.274;2022-09-24T13:56:17;3.45;;;3.15;;
19754;SDS011;10036;47.812;9.274;2022-09-24T13:58:45;4.28;;;3.80;;
19754;SDS011;10036;47.812;9.274;2022-09-24T14:01:16;5.35;;;3.45;;
19754;SDS011;10036;47.812;9.274;2022-09-24T14:03:54;3.88;;;3.45;;
19754;SDS011;10036;47.812;9.274;2022-09-24T14:06:30;4.05;;;3.65;;
19754;SDS011;10036;47.812;9.274;2022-09-24T14:09:01;4.53;;;3.88;;
19754;SDS011;10036;47.812;9.274;2022-09-24T14:11:28;5.25;;;3.97;;
19754;SDS011;10036;47.812;9.274;2022-09-24T14:13:55;6.50;;;3.92;;
19754;SDS011;10036;47.812;9.274;2022-09-24T14:16:23;5.07;;;4.55;;
19754;SDS011;10036;47.812;9.274;2022-09-24T14:19:00;4.43;;;4.03;;
19754;SDS011;10036;47.812;9.274;2022-09-24T14:21:29;4.50;;;4.10;;
19754;SDS011;10036;47.812;9.274;2022-09-24T14:24:02;5.18;;;4.00;;
19754;SDS011;10036;47.812;9.274;2022-09-24T14:26:32;4.50;;;3.97;;
19754;SDS011;10036;47.812;9.274;2022-09-24T14:29:02;5.68;;;3.90;;
19754;SDS011;10036;47.812;9.274;2022-09-24T14:31:40;6.45;;;4.20;;
19754;SDS011;10036;47.812;9.274;2022-09-24T14:34:12;4.40;;;4.00;;
19754;SDS011;10036;47.812;9.274;2022-09-24T14:36:49;4.68;;;4.20;;
19754;SDS011;10036;47.812;9.274;2022-09-24T14:39:18;5.40;;;4.88;;
19754;SDS011;10036;47.812;9.274;2022-09-24T14:41:45;5.68;;;5.10;;
19754;SDS011;10036;47.812;9.274;2022-09-24T14:44:14;5.82;;;5.32;;
19754;SDS011;10036;47.812;9.274;2022-09-24T14:46:47;7.18;;;6.18;;
19754;SDS011;10036;47.812;9.274;2022-09-24T14:49:17;7.82;;;5.50;;
19754;SDS011;10036;47.812;9.274;2022-09-24T14:51:50;6.60;;;5.90;;
19754;SDS011;10036;47.812;9.274;2022-09-24T14:54:21;6.70;;;4.85;;
19754;SDS011;10036;47.812;9.274;2022-09-24T14:56:53;5.50;;;5.00;;
19754;SDS011;10036;47.812;9.274;2022-09-24T14:59:27;5.35;;;4.85;;
19754;SDS011;10036;47.812;9.274;2022-09-24T15:02:02;5.78;;;5.18;;
19754;SDS011;10036;47.812;9.274;2022-09-24T15:04:37;6.03;;;4.80;;
19754;SDS011;10036;47.812;9.274;2022-09-24T15:07:04;5.32;;;4.82;;
19754;SDS011;10036;47.812;9.274;2022-09-24T15:09:40;5.80;;;4.90;;